Time;durP1;ratioP1;P1;durP2;ratioP2;P2;SDS_P1;SDS_P2;PMS_P1;PMS_P2;Temp;Humidity;BMP_temperature;BMP_pressure;BME280_temperature;BME280_humidity;BME280_pressure;Samples;Min_cycle;Max_cycle;Signal;HPM_P1;HPM_P2
2022/06/23 00:01:20;;;;;;;7.60;3.40;;;;;;;14.59;64.31;98137.09;105668;1284;23964;-83
2022/06/23 00:03:52;;;;;;;5.10;2.80;;;;;;;14.62;64.30;98136.80;105292;1283;137761;-83
2022/06/23 00:06:33;;;;;;;4.20;3.00;;;;;;;14.66;64.11;98138.33;105744;1284;25414;-84
2022/06/23 00:09:29;;;;;;;5.10;2.80;;;;;;;14.70;64.01;98137.98;105493;1284;137525;-84
2022/06/23 00:11:56;;;;;;;5.80;3.10;;;;;;;14.71;63.91;98135.23;105435;1284;22548;-84
2022/06/23 00:14:25;;;;;;;5.20;2.80;;;;;;;14.67;63.99;98135.14;105427;1284;137703;-84
2022/06/23 00:16:53;;;;;;;5.50;3.40;;;;;;;14.59;64.31;98131.88;105915;1284;24408;-84
2022/06/23 00:19:22;;;;;;;6.60;3.30;;;;;;;14.54;64.53;98128.96;105913;1284;23021;-84
2022/06/23 00:21:54;;;;;;;7.70;3.20;;;;;;;14.50;64.39;98131.06;105643;1284;137549;-83
2022/06/23 00:24:25;;;;;;;6.30;3.00;;;;;;;14.46;64.47;98131.45;105920;1284;22591;-84
2022/06/23 00:26:53;;;;;;;7.10;3.40;;;;;;;14.44;64.98;98133.93;105634;1284;137691;-84
2022/06/23 00:29:24;;;;;;;6.00;3.50;;;;;;;14.37;65.00;98133.23;105359;1284;24438;-83
2022/06/23 00:32:02;;;;;;;5.70;2.60;;;;;;;14.32;65.10;98132.15;105743;1284;22553;-84
2022/06/23 00:34:55;;;;;;;3.80;3.20;;;;;;;14.28;65.55;98129.86;105390;1284;24594;-84
2022/06/23 00:37:24;;;;;;;6.00;3.20;;;;;;;14.28;65.60;98130.45;105621;1284;23834;-84
2022/06/23 00:40:14;;;;;;;4.40;3.70;;;;;;;14.23;65.65;98127.79;105345;1284;137443;-84
2022/06/23 00:42:55;;;;;;;5.10;2.80;;;;;;;14.18;65.72;98129.59;105669;1284;25258;-84
2022/06/23 00:45:59;;;;;;;5.40;3.20;;;;;;;14.12;65.84;98126.05;105581;1284;137306;-84
2022/06/23 00:48:36;;;;;;;6.20;3.30;;;;;;;14.07;66.00;98127.27;105702;1284;22563;-83
2022/06/23 00:51:19;;;;;;;5.20;2.90;;;;;;;14.03;66.38;98128.69;105688;1284;137552;-84
2022/06/23 00:53:55;;;;;;;6.50;2.90;;;;;;;13.98;66.43;98124.05;105401;1284;22617;-84
2022/06/23 00:57:03;;;;;;;4.60;3.40;;;;;;;13.94;66.64;98120.39;105516;1285;137476;-84
2022/06/23 00:59:44;;;;;;;4.60;2.50;;;;;;;13.92;66.82;98119.34;105729;1284;22597;-84
2022/06/23 01:02:26;;;;;;;5.30;2.90;;;;;;;13.91;67.03;98117.64;105799;1284;25326;-84
2022/06/23 01:05:02;;;;;;;7.80;2.90;;;;;;;13.92;67.02;98120.54;105951;1284;23043;-86
2022/06/23 01:07:58;;;;;;;3.70;3.00;;;;;;;13.93;66.94;98116.92;105679;1284;22573;-86
2022/06/23 01:11:08;;;;;;;7.20;3.00;;;;;;;13.92;66.97;98115.34;105753;1284;25479;-83
2022/06/23 01:14:13;;;;;;;4.00;2.80;;;;;;;13.89;66.97;98108.89;106138;1282;23694;-85
2022/06/23 01:16:47;;;;;;;6.60;2.50;;;;;;;13.89;67.20;98112.66;105872;1284;25316;-85
2022/06/23 01:19:44;;;;;;;4.40;3.00;;;;;;;13.85;67.26;98114.58;105817;1284;22547;-85
2022/06/23 01:22:29;;;;;;;3.70;3.00;;;;;;;13.82;67.34;98117.23;105843;1284;137224;-85
2022/06/23 01:25:23;;;;;;;4.70;2.80;;;;;;;13.80;67.20;98119.57;105755;1284;24484;-85
2022/06/23 01:28:16;;;;;;;3.80;2.10;;;;;;;13.79;67.18;98117.38;105718;1284;138590;-85
2022/06/23 01:31:07;;;;;;;6.60;3.30;;;;;;;13.77;67.31;98119.46;105529;1284;22715;-84
2022/06/23 01:34:09;;;;;;;5.10;3.00;;;;;;;13.67;67.28;98119.95;105732;1284;137335;-85
2022/06/23 01:36:47;;;;;;;8.50;3.20;;;;;;;13.61;67.51;98123.84;105624;1284;25238;-84
2022/06/23 01:39:33;;;;;;;;;;;;;;;13.58;67.70;98126.79;105792;1284;137417;-84
2022/06/23 01:42:14;;;;;;;3.60;2.80;;;;;;;13.55;67.86;98131.44;106104;1284;22598;-84
2022/06/23 01:44:57;;;;;;;8.30;3.10;;;;;;;13.53;67.77;98132.14;105548;1284;137484;-83
2022/06/23 01:47:41;;;;;;;6.60;3.00;;;;;;;13.50;67.77;98131.65;105734;1284;22715;-84
2022/06/23 01:50:14;;;;;;;5.10;3.00;;;;;;;13.47;67.85;98135.05;106325;1284;24327;-84
2022/06/23 01:52:43;;;;;;;4.60;2.90;;;;;;;13.46;67.87;98136.46;105997;1284;22722;-84
2022/06/23 01:55:17;;;;;;;4.10;2.60;;;;;;;13.47;68.01;98144.17;105947;1284;22566;-84
2022/06/23 01:58:05;;;;;;;4.90;3.30;;;;;;;13.49;67.73;98146.64;105920;1283;137625;-84
2022/06/23 02:00:34;;;;;;;5.20;3.20;;;;;;;13.48;67.84;98148.39;106036;1284;24524;-84
2022/06/23 02:03:10;;;;;;;4.50;2.90;;;;;;;13.49;67.75;98144.79;106358;1284;137708;-84
2022/06/23 02:05:47;;;;;;;7.20;3.30;;;;;;;13.50;67.73;98151.23;105835;1284;24426;-85
2022/06/23 02:08:35;;;;;;;5.30;2.80;;;;;;;13.50;67.82;98152.16;105813;1284;137465;-84
2022/06/23 02:11:11;;;;;;;3.10;2.70;;;;;;;13.47;67.76;98154.46;105936;1283;25372;-84
2022/06/23 02:13:52;;;;;;;4.70;2.30;;;;;;;13.43;67.82;98158.61;106075;1284;22567;-84
2022/06/23 02:16:46;;;;;;;5.50;2.90;;;;;;;13.40;68.22;98162.45;105924;1284;137660;-85
2022/06/23 02:19:35;;;;;;;4.50;2.90;;;;;;;13.39;68.30;98161.80;105991;1284;22544;-84
2022/06/23 02:22:17;;;;;;;5.40;2.40;;;;;;;13.41;68.23;98167.27;106081;1284;138006;-85
2022/06/23 02:24:59;;;;;;;6.70;3.50;;;;;;;13.39;68.06;98168.29;106107;1284;22595;-84
2022/06/23 02:27:52;;;;;;;7.30;3.40;;;;;;;13.31;68.14;98173.68;106062;1284;137949;-85
2022/06/23 02:30:29;;;;;;;5.20;3.00;;;;;;;13.27;68.48;98174.75;106101;1284;25732;-83
2022/06/23 02:33:05;;;;;;;5.90;3.20;;;;;;;13.23;68.79;98181.46;105920;1284;137929;-84
2022/06/23 02:35:41;;;;;;;4.70;3.20;;;;;;;13.18;68.38;98184.84;106021;1284;24423;-84
2022/06/23 02:38:48;;;;;;;8.50;2.80;;;;;;;13.13;68.54;98187.98;106482;1284;22544;-84
2022/06/23 02:41:27;;;;;;;5.30;3.00;;;;;;;13.04;68.92;98190.09;106299;1284;23235;-84
2022/06/23 02:44:22;;;;;;;6.50;3.10;;;;;;;12.98;69.21;98193.78;105962;1284;29516;-85
2022/06/23 02:47:15;;;;;;;6.50;3.50;;;;;;;12.94;69.42;98196.49;105904;1284;23294;-85
2022/06/23 02:49:57;;;;;;;6.10;3.50;;;;;;;12.92;69.56;98196.88;105778;1284;22560;-86
2022/06/23 02:52:46;;;;;;;7.70;3.20;;;;;;;12.92;69.63;98202.29;105637;1284;137486;-85
2022/06/23 02:55:35;;;;;;;8.70;3.50;;;;;;;12.94;69.87;98200.93;105643;1284;22547;-85
2022/06/23 02:58:16;;;;;;;5.10;3.10;;;;;;;12.98;70.18;98200.73;105459;1284;137355;-85
2022/06/23 03:01:04;;;;;;;10.40;3.10;;;;;;;13.02;70.53;98201.67;105832;1284;23967;-85
2022/06/23 03:03:49;;;;;;;8.60;2.80;;;;;;;13.08;70.06;98205.75;105432;1284;137926;-87
2022/06/23 03:06:39;;;;;;;2.70;2.30;;;;;;;13.14;69.92;98202.82;105760;1284;23935;-85
2022/06/23 03:09:20;;;;;;;7.90;3.10;;;;;;;13.24;69.98;98205.73;105245;1284;137621;-85
2022/06/23 03:12:04;;;;;;;6.40;2.80;;;;;;;13.26;69.88;98208.16;105689;1283;22569;-85
2022/06/23 03:14:49;;;;;;;6.70;3.70;;;;;;;13.17;69.71;98208.02;105762;1283;137489;-85
2022/06/23 03:17:19;;;;;;;7.00;3.00;;;;;;;13.03;70.12;98205.83;105878;1284;22543;-85
2022/06/23 03:20:10;;;;;;;6.50;3.00;;;;;;;12.93;70.29;98208.90;105580;1284;25587;-85
2022/06/23 03:22:45;;;;;;;5.00;2.80;;;;;;;12.82;71.13;98215.41;105777;1283;137452;-84
2022/06/23 03:25:26;;;;;;;5.80;3.20;;;;;;;12.69;72.09;98218.89;105932;1284;22580;-85
2022/06/23 03:28:03;;;;;;;4.60;2.80;;;;;;;12.66;72.21;98217.68;105940;1284;138489;-85
2022/06/23 03:30:47;;;;;;;4.70;2.70;;;;;;;12.69;72.46;98222.13;105857;1284;22611;-85
2022/06/23 03:33:23;;;;;;;4.70;3.00;;;;;;;12.67;72.39;98226.04;106106;1284;137364;-85
2022/06/23 03:36:14;;;;;;;8.20;3.20;;;;;;;12.64;72.59;98228.11;105900;1284;25309;-84
2022/06/23 03:41:36;;;;;;;10.00;3.30;;;;;;;12.76;73.01;98233.56;106365;1283;22690;-85
2022/06/23 03:44:21;;;;;;;4.30;2.80;;;;;;;12.79;73.08;98233.33;106081;1284;22551;-85
2022/06/23 03:47:01;;;;;;;7.20;2.70;;;;;;;12.84;73.43;98232.80;105720;1285;24492;-85
2022/06/23 03:49:34;;;;;;;4.30;3.30;;;;;;;12.92;73.50;98235.86;106091;1284;25396;-85
2022/06/23 03:52:07;;;;;;;6.20;3.10;;;;;;;13.02;73.59;98236.49;105986;1284;138956;-85
2022/06/23 03:54:53;;;;;;;3.70;2.80;;;;;;;13.13;73.47;98237.26;105777;1284;22710;-85
2022/06/23 03:57:31;;;;;;;3.40;3.10;;;;;;;13.27;73.19;98241.09;105982;1284;137874;-85
2022/06/23 04:00:19;;;;;;;5.10;3.70;;;;;;;13.36;72.98;98242.30;106020;1284;25581;-85
2022/06/23 04:02:55;;;;;;;8.20;2.80;;;;;;;13.41;72.86;98241.33;105923;1284;138260;-85
2022/06/23 04:05:30;;;;;;;7.20;3.20;;;;;;;13.45;72.74;98248.79;105986;1284;24536;-85
2022/06/23 04:08:07;;;;;;;4.00;3.40;;;;;;;13.49;72.68;98249.89;105676;1284;22717;-85
2022/06/23 04:10:41;;;;;;;8.60;3.00;;;;;;;13.52;72.56;98250.44;105942;1284;137170;-85
2022/06/23 04:13:30;;;;;;;4.90;3.30;;;;;;;13.56;72.45;98255.54;106086;1284;22596;-85
2022/06/23 04:16:09;;;;;;;4.30;3.00;;;;;;;13.61;72.46;98252.98;106052;1283;137669;-84
2022/06/23 04:18:46;;;;;;;6.40;3.30;;;;;;;13.70;72.50;98249.77;105540;1284;24426;-84
2022/06/23 04:21:25;;;;;;;5.10;2.90;;;;;;;13.82;72.55;98254.23;105652;1284;138154;-85
2022/06/23 04:24:02;;;;;;;6.80;3.50;;;;;;;13.93;72.24;98258.58;105788;1284;22685;-84
2022/06/23 04:26:38;;;;;;;7.30;3.90;;;;;;;14.03;72.10;98260.39;105768;1284;137669;-84
2022/06/23 04:29:15;;;;;;;7.70;3.40;;;;;;;14.17;71.95;98265.01;106279;1284;25251;-85
2022/06/23 04:32:00;;;;;;;7.80;3.20;;;;;;;14.30;71.77;98272.13;106007;1284;24317;-84
2022/06/23 04:34:32;;;;;;;3.80;2.90;;;;;;;14.39;71.26;98270.92;105937;1284;138040;-84
2022/06/23 04:37:02;;;;;;;7.50;2.90;;;;;;;14.47;70.88;98266.27;105714;1282;22548;-84
2022/06/23 04:39:32;;;;;;;7.00;3.10;;;;;;;14.56;70.53;98269.66;106329;1284;138016;-84
2022/06/23 04:42:07;;;;;;;6.60;3.00;;;;;;;14.62;70.48;98272.52;106353;1282;25430;-84
2022/06/23 04:44:45;;;;;;;8.00;3.40;;;;;;;14.69;70.23;98274.65;106143;1282;137654;-84
2022/06/23 04:47:23;;;;;;;6.40;3.00;;;;;;;14.76;70.04;98276.05;106159;1284;22563;-84
2022/06/23 04:50:13;;;;;;;6.60;2.90;;;;;;;14.87;70.15;98279.72;106000;1284;23932;-84
2022/06/23 04:52:54;;;;;;;6.50;3.10;;;;;;;14.97;70.01;98285.95;106008;1284;137064;-84
2022/06/23 04:55:31;;;;;;;5.70;2.70;;;;;;;15.06;69.48;98283.66;106186;1284;24318;-84
2022/06/23 04:58:20;;;;;;;5.00;3.20;;;;;;;15.16;69.10;98286.11;105949;1284;137470;-84
2022/06/23 05:00:49;;;;;;;5.10;2.70;;;;;;;15.25;69.02;98289.86;106227;1283;24232;-85
2022/06/23 05:03:19;;;;;;;4.70;2.80;;;;;;;15.33;68.71;98293.30;105850;1284;137335;-84
2022/06/23 05:05:59;;;;;;;3.80;2.80;;;;;;;15.41;68.57;98288.05;106043;1284;24235;-85
2022/06/23 05:08:31;;;;;;;5.10;3.50;;;;;;;15.47;68.11;98291.04;106015;1283;138487;-85
2022/06/23 05:11:07;;;;;;;5.80;2.80;;;;;;;15.53;67.91;98293.43;105955;1284;22534;-85
2022/06/23 05:13:49;;;;;;;7.00;3.10;;;;;;;15.59;67.87;98294.72;105903;1284;22551;-85
2022/06/23 05:16:29;;;;;;;5.40;3.20;;;;;;;15.66;68.28;98294.63;105848;1284;137641;-84
2022/06/23 05:19:05;;;;;;;10.40;3.20;;;;;;;15.73;68.43;98298.50;106086;1283;24348;-84
2022/06/23 05:21:50;;;;;;;7.00;3.10;;;;;;;15.82;68.27;98297.32;105701;1284;138365;-84
2022/06/23 05:24:23;;;;;;;10.90;3.10;;;;;;;15.92;68.29;98301.82;106202;1283;22572;-84
2022/06/23 05:27:16;;;;;;;9.20;3.50;;;;;;;16.02;68.31;98304.30;106274;1284;138122;-83
2022/06/23 05:29:49;;;;;;;13.50;3.80;;;;;;;16.11;67.90;98310.81;105695;1285;22573;-83
2022/06/23 05:32:30;;;;;;;7.70;3.10;;;;;;;16.21;67.96;98307.95;105439;1284;22596;-83
2022/06/23 05:35:20;;;;;;;10.80;3.00;;;;;;;16.30;67.95;98311.83;106113;1284;22554;-84
2022/06/23 05:38:15;;;;;;;8.20;3.10;;;;;;;16.40;67.97;98317.21;105854;1284;30317;-84
2022/06/23 05:40:51;;;;;;;6.50;3.10;;;;;;;16.47;68.15;98314.57;106450;1284;137730;-83
2022/06/23 05:43:19;;;;;;;12.20;3.70;;;;;;;16.54;68.22;98317.81;106035;1284;22547;-85
2022/06/23 05:45:55;;;;;;;23.10;4.60;;;;;;;16.63;68.14;98317.63;105844;1284;138995;-83
2022/06/23 05:48:42;;;;;;;15.10;3.90;;;;;;;16.76;67.90;98321.92;105678;1284;31595;-85
2022/06/23 05:51:09;;;;;;;9.70;3.10;;;;;;;16.87;67.94;98322.50;105915;1284;137587;-85
2022/06/23 05:53:49;;;;;;;16.10;3.10;;;;;;;16.98;67.53;98321.30;105595;1284;22581;-84
2022/06/23 05:56:16;;;;;;;9.90;3.10;;;;;;;17.11;67.24;98325.58;105920;1283;22567;-86
2022/06/23 05:58:55;;;;;;;15.40;3.20;;;;;;;17.21;67.18;98329.09;105925;1284;26499;-86
2022/06/23 06:01:24;;;;;;;;;;;;;;;17.32;66.78;98329.90;105912;1284;22538;-83
2022/06/23 06:03:57;;;;;;;12.30;2.80;;;;;;;17.41;66.55;98335.58;105845;1284;123784;-83
2022/06/23 06:06:27;;;;;;;8.70;2.50;;;;;;;17.52;65.80;98337.30;105855;1283;22563;-83
2022/06/23 06:12:01;;;;;;;14.80;3.10;;;;;;;17.70;64.91;98343.05;106038;1284;25320;-84
2022/06/23 06:14:38;;;;;;;11.20;2.90;;;;;;;17.78;64.58;98342.19;105599;1284;137830;-84
2022/06/23 06:17:06;;;;;;;11.40;2.50;;;;;;;17.85;64.40;98341.84;105955;1284;22652;-82
2022/06/23 06:19:34;;;;;;;8.40;2.90;;;;;;;17.92;63.77;98341.88;106399;1284;22586;-84
2022/06/23 06:22:37;;;;;;;12.60;3.00;;;;;;;18.00;63.04;98344.63;106433;1284;137431;-83
2022/06/23 06:25:07;;;;;;;12.40;3.00;;;;;;;18.11;63.01;98348.33;105808;1284;22723;-82
2022/06/23 06:27:48;;;;;;;14.10;2.80;;;;;;;18.22;62.40;98352.98;105663;1284;138255;-83
2022/06/23 06:30:23;;;;;;;9.70;2.70;;;;;;;18.32;61.39;98352.00;105996;1284;22617;-84
2022/06/23 06:33:05;;;;;;;9.90;2.30;;;;;;;18.42;60.23;98355.81;106032;1284;138061;-83
2022/06/23 06:35:54;;;;;;;13.40;2.80;;;;;;;18.54;60.06;98360.33;105957;1284;22746;-84
2022/06/23 06:38:24;;;;;;;12.10;2.40;;;;;;;18.65;59.24;98359.29;105772;1284;138217;-84
2022/06/23 06:40:56;;;;;;;7.60;1.90;;;;;;;18.73;59.02;98356.33;105858;1284;23088;-84
2022/06/23 06:43:32;;;;;;;11.20;2.20;;;;;;;18.82;58.15;98358.84;106107;1284;22582;-84
2022/06/23 06:46:00;;;;;;;13.00;2.90;;;;;;;18.91;57.60;98357.44;105836;1284;138360;-85
2022/06/23 06:48:39;;;;;;;9.20;2.00;;;;;;;19.00;57.39;98355.23;105481;1284;24452;-84
2022/06/23 06:51:11;;;;;;;;;;;;;;;19.10;56.36;98356.49;105745;1283;137486;-85
2022/06/23 06:53:49;;;;;;;6.20;2.10;;;;;;;19.21;56.14;98358.23;106171;1283;23299;-85
2022/06/23 06:56:36;;;;;;;2.40;1.60;;;;;;;19.30;55.17;98358.33;105870;1284;22559;-85
2022/06/23 06:59:30;;;;;;;4.20;1.50;;;;;;;19.41;54.56;98359.84;106762;1282;22576;-85
2022/06/23 07:02:14;;;;;;;3.70;1.90;;;;;;;19.54;54.47;98360.68;106606;1282;22537;-85
2022/06/23 07:05:01;;;;;;;2.20;1.40;;;;;;;19.67;53.81;98363.81;106518;1282;137401;-84
2022/06/23 07:07:37;;;;;;;4.00;1.50;;;;;;;19.81;53.50;98366.05;106710;1282;26472;-84
2022/06/23 07:10:20;;;;;;;2.70;1.30;;;;;;;19.94;52.69;98363.34;106657;1282;138064;-84
2022/06/23 07:12:54;;;;;;;1.90;1.30;;;;;;;20.08;51.30;98369.08;106430;1282;367971;-82
2022/06/23 07:16:04;;;;;;;8.20;1.70;;;;;;;20.19;49.51;98366.33;106450;1282;137955;-84
2022/06/23 07:18:54;;;;;;;3.20;1.80;;;;;;;20.33;50.14;98369.90;105977;1283;22608;-84
2022/06/23 07:21:51;;;;;;;5.50;1.40;;;;;;;20.47;50.08;98371.73;106414;1282;137676;-84
2022/06/23 07:24:26;;;;;;;4.70;1.40;;;;;;;20.61;49.80;98373.39;106258;1283;25347;-85
2022/06/23 07:27:19;;;;;;;1.30;1.20;;;;;;;20.73;48.40;98374.52;105717;1284;138355;-84
2022/06/23 07:29:57;;;;;;;2.00;1.40;;;;;;;20.83;48.07;98376.98;105961;1284;24297;-84
2022/06/23 07:32:55;;;;;;;6.60;1.60;;;;;;;20.96;48.23;98382.14;105881;1284;137674;-84
2022/06/23 07:35:48;;;;;;;3.10;2.20;;;;;;;21.10;48.18;98383.45;105984;1284;23074;-85
2022/06/23 07:38:32;;;;;;;3.10;1.80;;;;;;;21.25;48.08;98381.50;105483;1285;23415;-84
2022/06/23 07:41:07;;;;;;;1.60;1.40;;;;;;;21.41;47.84;98383.48;106237;1284;30184;-84
2022/06/23 07:43:47;;;;;;;3.40;1.30;;;;;;;21.54;47.53;98389.86;106242;1284;25316;-85
2022/06/23 07:46:14;;;;;;;3.60;1.50;;;;;;;21.66;46.72;98392.45;105762;1284;137380;-85
2022/06/23 07:48:42;;;;;;;2.50;1.50;;;;;;;21.78;46.45;98389.40;105629;1284;23336;-83
2022/06/23 07:51:10;;;;;;;3.00;1.40;;;;;;;21.91;46.54;98387.16;105693;1284;138396;-83
2022/06/23 07:53:54;;;;;;;2.70;1.40;;;;;;;22.00;44.88;98388.16;105623;1284;23521;-82
2022/06/23 07:56:30;;;;;;;3.60;1.40;;;;;;;22.07;43.16;98393.86;105714;1284;138141;-82
2022/06/23 07:59:10;;;;;;;5.30;1.50;;;;;;;22.08;42.13;98393.27;105478;1284;22817;-83
2022/06/23 08:01:41;;;;;;;3.40;1.50;;;;;;;22.13;42.22;98393.84;105850;1284;30355;-81
2022/06/23 08:04:17;;;;;;;3.60;1.50;;;;;;;22.26;42.99;98394.23;105975;1284;137801;-83
2022/06/23 08:06:47;;;;;;;2.50;1.30;;;;;;;22.44;43.18;98392.81;106441;1284;22550;-82
2022/06/23 08:09:26;;;;;;;2.10;1.40;;;;;;;22.58;42.22;98392.48;106215;1284;137863;-82
2022/06/23 08:17:55;;;;;;;4.50;3.20;;;;;;;23.13;41.45;98394.50;105978;1284;23202;-83
2022/06/23 08:20:25;;;;;;;1.80;1.50;;;;;;;23.31;40.97;98395.73;106281;1283;138050;-82
2022/06/23 08:22:55;;;;;;;2.10;1.30;;;;;;;23.42;40.74;98391.45;106310;1282;23982;-82
2022/06/23 08:25:22;;;;;;;6.90;1.30;;;;;;;23.56;40.53;98393.73;106283;1282;22564;-81
2022/06/23 08:27:55;;;;;;;2.40;1.40;;;;;;;23.72;40.43;98391.44;105971;1284;137955;-81
2022/06/23 08:30:23;;;;;;;1.90;1.30;;;;;;;23.91;40.62;98398.19;105760;1285;22575;-82
2022/06/23 08:32:55;;;;;;;3.70;1.40;;;;;;;24.00;39.00;98397.13;105980;1284;137626;-83
2022/06/23 08:35:42;;;;;;;1.90;1.40;;;;;;;24.09;38.43;98392.80;106188;1284;25366;-82
2022/06/23 08:38:21;;;;;;;5.40;1.60;;;;;;;24.20;38.03;98397.77;106097;1284;22943;-82
2022/06/23 08:40:56;;;;;;;3.30;1.80;;;;;;;24.32;38.55;98396.65;106471;1284;22689;-83
2022/06/23 08:43:40;;;;;;;2.90;1.60;;;;;;;24.44;38.83;98398.49;106134;1284;22555;-81
2022/06/23 08:46:24;;;;;;;2.40;1.70;;;;;;;24.55;38.59;98398.49;105896;1284;137614;-83
2022/06/23 08:49:08;;;;;;;7.10;1.60;;;;;;;24.69;38.84;98400.02;105916;1284;23359;-82
2022/06/23 08:52:02;;;;;;;3.80;1.30;;;;;;;24.89;37.75;98400.10;105943;1284;138123;-83
2022/06/23 08:54:40;;;;;;;1.40;1.20;;;;;;;24.84;36.29;98400.73;106086;1283;22548;-82
2022/06/23 08:58:02;;;;;;;4.90;1.60;;;;;;;24.59;37.05;98402.48;105878;1283;137410;-82
2022/06/23 09:00:29;;;;;;;3.70;1.60;;;;;;;24.39;37.40;98397.53;106084;1284;22560;-82
2022/06/23 09:03:24;;;;;;;1.70;1.40;;;;;;;24.37;38.23;98401.71;105987;1284;137722;-82
2022/06/23 09:06:11;;;;;;;3.10;1.40;;;;;;;24.63;38.19;98405.27;106090;1285;24526;-81
2022/06/23 09:09:07;;;;;;;1.70;1.50;;;;;;;24.89;36.90;98400.02;106149;1284;137445;-82
2022/06/23 09:11:51;;;;;;;1.80;1.30;;;;;;;25.19;36.81;98403.82;105997;1284;25264;-81
2022/06/23 09:14:33;;;;;;;2.00;1.30;;;;;;;25.43;35.68;98407.26;105494;1285;24236;-81
2022/06/23 09:17:33;;;;;;;4.40;1.50;;;;;;;25.69;36.10;98404.95;105845;1284;22576;-81
2022/06/23 09:20:06;;;;;;;2.20;1.30;;;;;;;25.95;36.01;98398.24;105028;1286;22569;-83
2022/06/23 09:22:45;;;;;;;4.20;1.70;;;;;;;26.11;35.38;98399.02;105893;1284;137612;-81
2022/06/23 09:25:50;;;;;;;5.30;1.80;;;;;;;26.15;34.63;98400.96;105852;1284;23172;-81
2022/06/23 09:28:25;;;;;;;1.80;1.50;;;;;;;26.13;34.65;98399.32;106042;1284;137790;-81
2022/06/23 09:31:14;;;;;;;2.00;1.30;;;;;;;26.24;34.71;98396.54;105984;1284;22585;-81
2022/06/23 09:34:06;;;;;;;4.00;1.70;;;;;;;26.39;33.41;98392.29;105778;1284;138105;-81
2022/06/23 09:36:56;;;;;;;3.90;1.60;;;;;;;26.41;34.27;98394.84;106277;1284;22560;-82
2022/06/23 09:39:51;;;;;;;2.20;1.50;;;;;;;26.50;33.74;98392.89;105602;1284;137322;-81
2022/06/23 09:42:50;;;;;;;3.10;1.70;;;;;;;26.19;34.22;98394.80;106082;1284;22580;-81
2022/06/23 09:45:38;;;;;;;1.90;1.50;;;;;;;25.87;34.87;98396.93;105735;1284;137467;-81
2022/06/23 09:48:25;;;;;;;1.60;1.50;;;;;;;25.64;35.98;98406.59;106147;1284;24424;-81
2022/06/23 09:50:59;;;;;;;3.30;1.30;;;;;;;25.48;35.51;98407.65;106204;1284;137717;-81
2022/06/23 09:54:00;;;;;;;2.70;1.60;;;;;;;25.36;35.91;98408.28;106153;1284;24315;-81
2022/06/23 09:57:02;;;;;;;2.10;1.70;;;;;;;25.23;35.16;98405.95;105685;1284;137500;-81
2022/06/23 09:59:52;;;;;;;1.50;1.40;;;;;;;25.00;35.38;98404.48;105698;1284;22637;-81
2022/06/23 10:02:40;;;;;;;2.90;1.20;;;;;;;24.89;36.36;98404.49;105419;1287;137538;-81
2022/06/23 10:05:17;;;;;;;;;;;;;;;24.89;36.89;98405.83;106058;1282;24239;-81
2022/06/23 10:08:17;;;;;;;2.40;1.30;;;;;;;24.97;34.82;98402.38;106476;1282;22585;-80
2022/06/23 10:10:54;;;;;;;1.50;1.30;;;;;;;25.15;33.22;98402.41;106131;1284;22556;-81
2022/06/23 10:13:49;;;;;;;4.80;1.40;;;;;;;25.42;33.80;98402.67;106620;1282;22462;-81
2022/06/23 10:16:23;;;;;;;1.50;1.40;;;;;;;25.81;33.37;98397.69;105849;1284;137437;-80
2022/06/23 10:19:02;;;;;;;4.20;1.70;;;;;;;25.88;32.66;98396.14;106015;1284;23264;-81
2022/06/23 10:21:47;;;;;;;2.80;1.60;;;;;;;25.77;32.92;98400.17;105764;1284;137630;-81
2022/06/23 10:24:31;;;;;;;2.20;1.50;;;;;;;25.64;33.53;98405.40;106276;1284;24219;-81
2022/06/23 10:27:17;;;;;;;2.80;1.40;;;;;;;25.53;34.41;98407.41;105926;1284;138122;-81
2022/06/23 10:30:12;;;;;;;3.10;1.70;;;;;;;25.38;34.31;98408.73;106140;1284;22573;-81
2022/06/23 10:33:21;;;;;;;2.40;1.90;;;;;;;25.20;35.32;98408.71;106107;1284;137988;-84
2022/06/23 10:36:23;;;;;;;2.50;1.40;;;;;;;25.60;35.03;98413.40;106049;1284;24236;-83
2022/06/23 10:38:54;;;;;;;2.40;1.20;;;;;;;25.93;33.51;98409.39;105974;1284;137866;-83
2022/06/23 10:41:35;;;;;;;1.60;1.30;;;;;;;26.27;33.28;98404.94;106315;1284;22709;-84
2022/06/23 10:44:18;;;;;;;4.80;1.30;;;;;;;26.62;32.88;98398.58;106085;1283;23944;-83
2022/06/23 10:47:09;;;;;;;1.70;1.50;;;;;;;26.97;32.85;98399.94;106290;1284;30322;-84
2022/06/23 10:50:44;;;;;;;1.70;1.40;;;;;;;27.42;31.94;98399.37;103405;1312;545785;-83
2022/06/23 10:53:23;;;;;;;2.80;1.50;;;;;;;27.65;30.22;98393.95;105663;1288;22850;-83
2022/06/23 10:56:18;;;;;;;2.70;1.30;;;;;;;27.64;28.98;98391.14;106117;1286;25502;-84
2022/06/23 10:59:30;;;;;;;2.30;1.10;;;;;;;27.80;30.90;98396.34;105965;1287;22547;-83
2022/06/23 11:02:20;;;;;;;1.30;1.20;;;;;;;28.10;29.59;98389.19;104876;1292;30555;-83
2022/06/23 11:05:17;;;;;;;1.60;1.00;;;;;;;28.29;28.85;98381.95;104587;1286;1992066;-84
2022/06/23 11:08:26;;;;;;;2.20;1.50;;;;;;;28.09;29.54;98380.67;105659;1286;22823;-84
2022/06/23 11:11:27;;;;;;;1.70;1.40;;;;;;;28.19;30.23;98384.02;105959;1285;22635;-83
2022/06/23 11:14:04;;;;;;;1.60;1.10;;;;;;;28.43;29.80;98374.09;106378;1286;31304;-83
2022/06/23 11:16:40;;;;;;;3.50;1.40;;;;;;;28.58;28.91;98373.34;106008;1285;136851;-83
2022/06/23 11:19:23;;;;;;;2.60;1.30;;;;;;;28.64;28.79;98369.21;105940;1287;22583;-84
2022/06/23 11:22:15;;;;;;;2.70;1.30;;;;;;;28.63;29.35;98374.64;105491;1289;136874;-82
2022/06/23 11:24:57;;;;;;;2.00;1.20;;;;;;;28.76;28.86;98369.30;105787;1287;22592;-83
2022/06/23 11:27:34;;;;;;;1.40;1.30;;;;;;;28.91;28.19;98372.02;105584;1287;138271;-83
2022/06/23 11:30:22;;;;;;;1.30;1.10;;;;;;;28.95;28.01;98375.38;105891;1287;24243;-83
2022/06/23 11:33:10;;;;;;;2.50;1.10;;;;;;;28.99;27.33;98370.66;105892;1288;137492;-83
2022/06/23 11:35:58;;;;;;;2.70;1.40;;;;;;;28.82;26.66;98371.83;105858;1287;30571;-82
2022/06/23 11:38:46;;;;;;;1.80;1.20;;;;;;;28.79;27.34;98371.94;105488;1288;136918;-83
2022/06/23 11:41:33;;;;;;;3.00;1.00;;;;;;;28.83;26.48;98369.84;105471;1289;22601;-83
2022/06/23 11:44:14;;;;;;;2.60;1.20;;;;;;;28.94;25.87;98366.79;105741;1287;22789;-84
2022/06/23 11:47:13;;;;;;;2.10;1.20;;;;;;;29.20;26.62;98366.90;105536;1288;22576;-82
2022/06/23 11:50:00;;;;;;;1.00;1.00;;;;;;;29.46;26.73;98369.63;105489;1287;24086;-83
2022/06/23 11:52:41;;;;;;;1.40;1.20;;;;;;;29.63;25.39;98363.59;105695;1287;137097;-83
2022/06/23 11:55:37;;;;;;;1.30;1.00;;;;;;;29.78;26.28;98360.27;105511;1288;24283;-83
2022/06/23 11:58:33;;;;;;;3.20;1.10;;;;;;;29.86;26.35;98361.20;105337;1287;137357;-82
2022/06/23 12:01:06;;;;;;;4.10;1.10;;;;;;;29.93;26.30;98363.48;105518;1288;24298;-83
2022/06/23 12:04:18;;;;;;;3.20;1.50;;;;;;;29.89;26.02;98362.20;105410;1287;137246;-83
2022/06/23 12:07:07;;;;;;;2.90;1.00;;;;;;;30.01;25.89;98355.88;105509;1287;32075;-83
2022/06/23 12:09:54;;;;;;;1.50;1.10;;;;;;;30.15;25.95;98356.34;105685;1290;137832;-83
2022/06/23 12:12:21;;;;;;;1.40;1.10;;;;;;;30.21;25.47;98356.75;105488;1287;22727;-83
2022/06/23 12:14:50;;;;;;;1.90;1.20;;;;;;;30.12;25.21;98356.79;105535;1287;137097;-83
2022/06/23 12:17:24;;;;;;;1.70;1.20;;;;;;;30.13;25.85;98359.53;105852;1288;22634;-83
2022/06/23 12:20:06;;;;;;;3.40;1.50;;;;;;;30.19;25.61;98362.33;105596;1289;22599;-83
2022/06/23 12:23:00;;;;;;;2.80;1.10;;;;;;;30.20;25.04;98352.24;105791;1288;25338;-80
2022/06/23 12:26:24;;;;;;;2.00;1.30;;;;;;;30.29;26.01;98349.40;106485;1278;24292;-83
2022/06/23 12:29:05;;;;;;;1.50;1.30;;;;;;;30.50;26.33;98355.09;106091;1280;24424;-82
2022/06/23 12:32:06;;;;;;;3.60;1.10;;;;;;;30.53;25.88;98359.79;106284;1278;22543;-82
2022/06/23 12:34:57;;;;;;;3.10;1.10;;;;;;;30.65;25.36;98360.20;106215;1280;137024;-82
2022/06/23 12:37:38;;;;;;;1.60;1.40;;;;;;;30.83;24.26;98359.29;106365;1279;30178;-81
2022/06/23 12:40:23;;;;;;;1.40;1.00;;;;;;;30.75;24.03;98351.49;106390;1278;136909;-90
2022/06/23 12:42:59;;;;;;;2.00;1.20;;;;;;;30.67;23.65;98350.34;106098;1279;22803;-83
2022/06/23 12:45:44;;;;;;;2.50;1.10;;;;;;;30.73;24.19;98349.20;106297;1279;136757;-88